sensor_id;sensor_type;location;lat;lon;timestamp;temperature;humidity
17148;DHT22;8689;47.364;8.796;2024-01-30T00:30:29;0.40;99.90
17148;DHT22;8689;47.364;8.796;2024-01-30T00:37:24;0.40;99.90
17148;DHT22;8689;47.364;8.796;2024-01-30T00:40:14;0.40;99.90
17148;DHT22;8689;47.364;8.796;2024-01-30T00:46:09;0.30;99.90
17148;DHT22;8689;47.364;8.796;2024-01-30T00:48:48;0.30;99.90
17148;DHT22;8689;47.364;8.796;2024-01-30T00:51:43;0.40;99.90
17148;DHT22;8689;47.364;8.796;2024-01-30T00:54:57;0.40;99.90
17148;DHT22;8689;47.364;8.796;2024-01-30T00:57:32;0.50;99.90
17148;DHT22;8689;47.364;8.796;2024-01-30T01:00:16;0.60;99.90
17148;DHT22;8689;47.364;8.796;2024-01-30T01:02:49;0.60;99.90
17148;DHT22;8689;47.364;8.796;2024-01-30T01:05:19;0.60;99.90
17148;DHT22;8689;47.364;8.796;2024-01-30T01:08:25;0.60;99.90
17148;DHT22;8689;47.364;8.796;2024-01-30T01:11:25;0.60;99.90
17148;DHT22;8689;47.364;8.796;2024-01-30T01:14:00;0.50;99.90
17148;DHT22;8689;47.364;8.796;2024-01-30T01:16:51;0.60;99.90
17148;DHT22;8689;47.364;8.796;2024-01-30T01:19:30;0.50;99.90
17148;DHT22;8689;47.364;8.796;2024-01-30T01:22:11;0.50;99.90
17148;DHT22;8689;47.364;8.796;2024-01-30T01:25:14;0.30;99.90
17148;DHT22;8689;47.364;8.796;2024-01-30T05:02:12;-0.80;99.90
17148;DHT22;8689;47.364;8.796;2024-01-30T05:12:58;-0.60;99.90
17148;DHT22;8689;47.364;8.796;2024-01-30T05:22:49;-0.80;99.90
17148;DHT22;8689;47.364;8.796;2024-01-30T05:25:25;-0.80;99.90
17148;DHT22;8689;47.364;8.796;2024-01-30T05:27:52;-0.80;99.90
17148;DHT22;8689;47.364;8.796;2024-01-30T05:30:21;-0.70;99.90
17148;DHT22;8689;47.364;8.796;2024-01-30T05:32:48;-0.60;99.90
17148;DHT22;8689;47.364;8.796;2024-01-30T05:35:15;-0.50;99.90
17148;DHT22;8689;47.364;8.796;2024-01-30T05:37:44;-0.40;99.90
17148;DHT22;8689;47.364;8.796;2024-01-30T05:40:29;-0.40;99.90
17148;DHT22;8689;47.364;8.796;2024-01-30T05:43:18;-0.40;99.90
17148;DHT22;8689;47.364;8.796;2024-01-30T05:45:46;-0.50;99.90
17148;DHT22;8689;47.364;8.796;2024-01-30T05:48:13;-0.50;99.90
17148;DHT22;8689;47.364;8.796;2024-01-30T05:50:41;-0.50;99.90
17148;DHT22;8689;47.364;8.796;2024-01-30T05:53:10;-0.50;99.90
17148;DHT22;8689;47.364;8.796;2024-01-30T05:55:38;-0.50;99.90
17148;DHT22;8689;47.364;8.796;2024-01-30T05:58:09;-0.60;99.90
17148;DHT22;8689;47.364;8.796;2024-01-30T06:07:19;-0.60;99.90
17148;DHT22;8689;47.364;8.796;2024-01-30T06:10:01;-0.40;99.90
17148;DHT22;8689;47.364;8.796;2024-01-30T06:12:52;-0.30;99.90
17148;DHT22;8689;47.364;8.796;2024-01-30T06:15:26;-0.40;99.90
17148;DHT22;8689;47.364;8.796;2024-01-30T06:17:55;-0.50;99.90
17148;DHT22;8689;47.364;8.796;2024-01-30T06:20:24;-0.50;99.90
17148;DHT22;8689;47.364;8.796;2024-01-30T06:22:51;-0.60;99.90
17148;DHT22;8689;47.364;8.796;2024-01-30T06:25:21;-0.60;99.90
17148;DHT22;8689;47.364;8.796;2024-01-30T06:27:50;-0.70;99.90
17148;DHT22;8689;47.364;8.796;2024-01-30T06:30:18;-0.60;99.90
17148;DHT22;8689;47.364;8.796;2024-01-30T06:32:46;-0.60;99.90
17148;DHT22;8689;47.364;8.796;2024-01-30T06:35:18;-0.70;99.90
17148;DHT22;8689;47.364;8.796;2024-01-30T06:37:47;-0.70;99.90
17148;DHT22;8689;47.364;8.796;2024-01-30T06:40:22;-0.80;99.90
17148;DHT22;8689;47.364;8.796;2024-01-30T06:42:50;-0.90;99.90
17148;DHT22;8689;47.364;8.796;2024-01-30T06:45:56;-0.90;99.90
17148;DHT22;8689;47.364;8.796;2024-01-30T06:48:20;-0.80;99.90
17148;DHT22;8689;47.364;8.796;2024-01-30T06:50:48;-0.80;99.90
17148;DHT22;8689;47.364;8.796;2024-01-30T06:53:51;-0.70;99.90
17148;DHT22;8689;47.364;8.796;2024-01-30T06:58:57;-0.60;99.90
17148;DHT22;8689;47.364;8.796;2024-01-30T07:01:28;-0.60;99.90
17148;DHT22;8689;47.364;8.796;2024-01-30T07:04:23;-0.50;99.90
17148;DHT22;8689;47.364;8.796;2024-01-30T07:06:51;-0.40;99.90
17148;DHT22;8689;47.364;8.796;2024-01-30T07:09:19;-0.30;99.90
17148;DHT22;8689;47.364;8.796;2024-01-30T07:11:49;-0.30;99.90
17148;DHT22;8689;47.364;8.796;2024-01-30T07:14:21;-0.40;99.90
17148;DHT22;8689;47.364;8.796;2024-01-30T07:16:48;-0.20;99.90
17148;DHT22;8689;47.364;8.796;2024-01-30T07:19:27;-0.20;99.90
17148;DHT22;8689;47.364;8.796;2024-01-30T07:21:55;-0.10;99.90
17148;DHT22;8689;47.364;8.796;2024-01-30T07:24:26;0.00;99.90
17148;DHT22;8689;47.364;8.796;2024-01-30T07:26:55;0.10;99.90
17148;DHT22;8689;47.364;8.796;2024-01-30T07:29:24;0.10;99.90
17148;DHT22;8689;47.364;8.796;2024-01-30T07:31:52;0.10;99.90
17148;DHT22;8689;47.364;8.796;2024-01-30T07:34:20;0.20;99.90
17148;DHT22;8689;47.364;8.796;2024-01-30T07:36:48;0.20;99.90
17148;DHT22;8689;47.364;8.796;2024-01-30T07:39:17;0.20;99.90
17148;DHT22;8689;47.364;8.796;2024-01-30T07:41:48;0.20;99.90
17148;DHT22;8689;47.364;8.796;2024-01-30T07:44:18;0.30;99.90
17148;DHT22;8689;47.364;8.796;2024-01-30T07:46:46;0.40;99.90
17148;DHT22;8689;47.364;8.796;2024-01-30T07:50:51;0.60;99.90
17148;DHT22;8689;47.364;8.796;2024-01-30T07:52:37;0.70;99.90
17148;DHT22;8689;47.364;8.796;2024-01-30T07:55:06;0.80;99.90
17148;DHT22;8689;47.364;8.796;2024-01-30T07:57:34;0.80;99.90
17148;DHT22;8689;47.364;8.796;2024-01-30T08:00:04;0.80;99.90
17148;DHT22;8689;47.364;8.796;2024-01-30T08:02:33;0.80;99.90
17148;DHT22;8689;47.364;8.796;2024-01-30T08:05:02;0.80;99.90
17148;DHT22;8689;47.364;8.796;2024-01-30T08:07:41;0.90;99.90
17148;DHT22;8689;47.364;8.796;2024-01-30T08:10:18;1.00;99.90
17148;DHT22;8689;47.364;8.796;2024-01-30T08:12:46;1.00;99.90
17148;DHT22;8689;47.364;8.796;2024-01-30T08:15:16;1.10;99.90
17148;DHT22;8689;47.364;8.796;2024-01-30T08:17:46;1.20;99.90
17148;DHT22;8689;47.364;8.796;2024-01-30T08:23:58;1.20;99.90
17148;DHT22;8689;47.364;8.796;2024-01-30T08:26:30;1.30;99.90
17148;DHT22;8689;47.364;8.796;2024-01-30T08:28:58;1.40;99.90
17148;DHT22;8689;47.364;8.796;2024-01-30T08:31:26;1.40;99.90
17148;DHT22;8689;47.364;8.796;2024-01-30T08:33:54;1.50;99.90
17148;DHT22;8689;47.364;8.796;2024-01-30T08:36:22;1.50;99.90
17148;DHT22;8689;47.364;8.796;2024-01-30T08:38:50;1.50;99.90
17148;DHT22;8689;47.364;8.796;2024-01-30T08:41:17;1.60;99.90
17148;DHT22;8689;47.364;8.796;2024-01-30T08:43:45;1.60;99.90
17148;DHT22;8689;47.364;8.796;2024-01-30T08:46:12;1.60;99.90
17148;DHT22;8689;47.364;8.796;2024-01-30T08:48:42;1.70;99.90
17148;DHT22;8689;47.364;8.796;2024-01-30T08:51:09;1.70;99.90
17148;DHT22;8689;47.364;8.796;2024-01-30T08:53:37;1.80;99.90
17148;DHT22;8689;47.364;8.796;2024-01-30T08:56:05;1.80;99.90
17148;DHT22;8689;47.364;8.796;2024-01-30T08:58:32;1.90;99.90
17148;DHT22;8689;47.364;8.796;2024-01-30T09:00:59;1.90;99.90
17148;DHT22;8689;47.364;8.796;2024-01-30T09:03:26;2.00;99.90
17148;DHT22;8689;47.364;8.796;2024-01-30T09:05:55;2.10;99.90
17148;DHT22;8689;47.364;8.796;2024-01-30T09:08:22;2.20;99.90
17148;DHT22;8689;47.364;8.796;2024-01-30T09:10:54;2.40;99.90
17148;DHT22;8689;47.364;8.796;2024-01-30T09:13:31;2.60;99.90
17148;DHT22;8689;47.364;8.796;2024-01-30T09:15:58;2.80;99.90
17148;DHT22;8689;47.364;8.796;2024-01-30T09:18:25;3.00;99.90
17148;DHT22;8689;47.364;8.796;2024-01-30T09:20:55;3.30;99.90
17148;DHT22;8689;47.364;8.796;2024-01-30T09:23:22;3.50;99.90
17148;DHT22;8689;47.364;8.796;2024-01-30T09:25:50;3.80;99.90
17148;DHT22;8689;47.364;8.796;2024-01-30T09:28:19;4.00;99.90
17148;DHT22;8689;47.364;8.796;2024-01-30T09:30:47;4.30;99.90
17148;DHT22;8689;47.364;8.796;2024-01-30T09:33:14;4.70;99.90
17148;DHT22;8689;47.364;8.796;2024-01-30T09:35:41;5.20;99.90
17148;DHT22;8689;47.364;8.796;2024-01-30T09:38:10;5.80;99.90
17148;DHT22;8689;47.364;8.796;2024-01-30T09:40:38;6.30;99.90
17148;DHT22;8689;47.364;8.796;2024-01-30T09:43:05;6.70;99.90
17148;DHT22;8689;47.364;8.796;2024-01-30T09:45:32;7.10;99.90
17148;DHT22;8689;47.364;8.796;2024-01-30T09:48:00;7.20;99.90
17148;DHT22;8689;47.364;8.796;2024-01-30T09:50:29;7.40;99.90
17148;DHT22;8689;47.364;8.796;2024-01-30T09:52:57;7.50;99.90
17148;DHT22;8689;47.364;8.796;2024-01-30T09:55:27;7.60;99.90
17148;DHT22;8689;47.364;8.796;2024-01-30T09:57:54;7.60;99.70
17148;DHT22;8689;47.364;8.796;2024-01-30T10:00:21;7.50;99.90
17148;DHT22;8689;47.364;8.796;2024-01-30T10:03:40;7.30;99.90
17148;DHT22;8689;47.364;8.796;2024-01-30T10:06:32;7.30;99.90
17148;DHT22;8689;47.364;8.796;2024-01-30T10:09:02;7.50;99.90
17148;DHT22;8689;47.364;8.796;2024-01-30T10:11:32;7.70;99.90
17148;DHT22;8689;47.364;8.796;2024-01-30T10:14:00;8.20;99.90
17148;DHT22;8689;47.364;8.796;2024-01-30T10:16:27;8.70;99.90
17148;DHT22;8689;47.364;8.796;2024-01-30T10:18:55;9.40;97.80
17148;DHT22;8689;47.364;8.796;2024-01-30T10:21:22;10.00;94.80
17148;DHT22;8689;47.364;8.796;2024-01-30T10:23:50;10.40;94.00
17148;DHT22;8689;47.364;8.796;2024-01-30T10:26:17;10.80;92.60
17148;DHT22;8689;47.364;8.796;2024-01-30T10:28:46;11.30;91.00
17148;DHT22;8689;47.364;8.796;2024-01-30T10:31:16;11.50;90.20
17148;DHT22;8689;47.364;8.796;2024-01-30T10:33:44;11.70;87.10
17148;DHT22;8689;47.364;8.796;2024-01-30T10:36:13;12.00;85.30
17148;DHT22;8689;47.364;8.796;2024-01-30T10:38:42;12.10;84.90
17148;DHT22;8689;47.364;8.796;2024-01-30T10:41:16;12.10;82.20
17148;DHT22;8689;47.364;8.796;2024-01-30T10:43:57;12.20;81.40
17148;DHT22;8689;47.364;8.796;2024-01-30T10:46:30;12.30;79.80
17148;DHT22;8689;47.364;8.796;2024-01-30T10:48:59;12.50;78.30
17148;DHT22;8689;47.364;8.796;2024-01-30T10:51:28;12.60;75.50
17148;DHT22;8689;47.364;8.796;2024-01-30T10:53:56;12.40;75.30
17148;DHT22;8689;47.364;8.796;2024-01-30T10:56:48;12.10;75.50
17148;DHT22;8689;47.364;8.796;2024-01-30T10:59:18;11.80;77.60
17148;DHT22;8689;47.364;8.796;2024-01-30T11:01:46;11.60;77.20
17148;DHT22;8689;47.364;8.796;2024-01-30T11:04:15;11.50;77.30
17148;DHT22;8689;47.364;8.796;2024-01-30T11:07:23;11.60;77.30
17148;DHT22;8689;47.364;8.796;2024-01-30T11:12:50;12.00;76.30
17148;DHT22;8689;47.364;8.796;2024-01-30T11:15:24;12.20;73.30
17148;DHT22;8689;47.364;8.796;2024-01-30T11:17:52;12.30;72.20
17148;DHT22;8689;47.364;8.796;2024-01-30T11:20:36;12.50;71.10
17148;DHT22;8689;47.364;8.796;2024-01-30T11:23:07;13.00;69.30
17148;DHT22;8689;47.364;8.796;2024-01-30T11:25:36;13.70;69.00
17148;DHT22;8689;47.364;8.796;2024-01-30T11:28:04;14.30;68.30
17148;DHT22;8689;47.364;8.796;2024-01-30T11:36:25;14.80;62.90
17148;DHT22;8689;47.364;8.796;2024-01-30T11:39:09;14.40;64.40
17148;DHT22;8689;47.364;8.796;2024-01-30T11:41:52;13.90;67.90
17148;DHT22;8689;47.364;8.796;2024-01-30T11:44:26;13.30;70.30
17148;DHT22;8689;47.364;8.796;2024-01-30T11:46:57;12.70;73.60
17148;DHT22;8689;47.364;8.796;2024-01-30T11:49:26;12.30;75.20
17148;DHT22;8689;47.364;8.796;2024-01-30T11:51:54;12.30;76.40
17148;DHT22;8689;47.364;8.796;2024-01-30T11:54:21;12.50;76.00
17148;DHT22;8689;47.364;8.796;2024-01-30T11:56:54;12.80;74.60
17148;DHT22;8689;47.364;8.796;2024-01-30T11:59:27;13.10;69.50
17148;DHT22;8689;47.364;8.796;2024-01-30T12:02:06;13.10;67.00
17148;DHT22;8689;47.364;8.796;2024-01-30T12:04:37;12.90;67.20
17148;DHT22;8689;47.364;8.796;2024-01-30T12:07:05;12.80;68.70
17148;DHT22;8689;47.364;8.796;2024-01-30T12:09:33;12.90;68.90
17148;DHT22;8689;47.364;8.796;2024-01-30T12:12:00;13.00;66.90
17148;DHT22;8689;47.364;8.796;2024-01-30T12:14:28;13.10;67.00
17148;DHT22;8689;47.364;8.796;2024-01-30T12:16:56;13.20;66.30
17148;DHT22;8689;47.364;8.796;2024-01-30T12:19:24;13.40;66.60
17148;DHT22;8689;47.364;8.796;2024-01-30T12:22:01;13.60;67.50
17148;DHT22;8689;47.364;8.796;2024-01-30T12:24:50;14.00;67.20
17148;DHT22;8689;47.364;8.796;2024-01-30T12:27:25;13.90;66.90
17148;DHT22;8689;47.364;8.796;2024-01-30T12:29:56;13.70;66.00
17148;DHT22;8689;47.364;8.796;2024-01-30T12:32:24;13.40;68.00
17148;DHT22;8689;47.364;8.796;2024-01-30T12:34:55;13.20;68.30
17148;DHT22;8689;47.364;8.796;2024-01-30T12:37:24;13.10;68.70
17148;DHT22;8689;47.364;8.796;2024-01-30T12:39:52;13.30;70.10
17148;DHT22;8689;47.364;8.796;2024-01-30T12:42:21;13.80;65.50
17148;DHT22;8689;47.364;8.796;2024-01-30T12:44:48;14.20;62.00
17148;DHT22;8689;47.364;8.796;2024-01-30T12:47:16;14.60;60.70
17148;DHT22;8689;47.364;8.796;2024-01-30T12:49:43;15.10;58.30
17148;DHT22;8689;47.364;8.796;2024-01-30T12:52:11;15.50;57.90
17148;DHT22;8689;47.364;8.796;2024-01-30T12:54:40;15.80;55.30
17148;DHT22;8689;47.364;8.796;2024-01-30T12:57:09;16.00;55.60
17148;DHT22;8689;47.364;8.796;2024-01-30T12:59:36;16.20;55.70
17148;DHT22;8689;47.364;8.796;2024-01-30T13:02:05;16.50;52.30
17148;DHT22;8689;47.364;8.796;2024-01-30T13:04:32;16.60;53.20
17148;DHT22;8689;47.364;8.796;2024-01-30T13:07:00;16.40;52.20
17148;DHT22;8689;47.364;8.796;2024-01-30T13:09:29;15.90;52.00
17148;DHT22;8689;47.364;8.796;2024-01-30T13:12:06;15.50;54.70
17148;DHT22;8689;47.364;8.796;2024-01-30T13:14:52;15.10;57.40
17148;DHT22;8689;47.364;8.796;2024-01-30T13:17:27;14.50;58.20
17148;DHT22;8689;47.364;8.796;2024-01-30T13:19:55;14.00;59.40
17148;DHT22;8689;47.364;8.796;2024-01-30T13:22:28;13.50;59.40
17148;DHT22;8689;47.364;8.796;2024-01-30T13:24:55;13.10;59.50
17148;DHT22;8689;47.364;8.796;2024-01-30T13:27:27;12.80;61.40
17148;DHT22;8689;47.364;8.796;2024-01-30T13:29:54;12.50;62.10
17148;DHT22;8689;47.364;8.796;2024-01-30T13:32:22;12.30;62.30
17148;DHT22;8689;47.364;8.796;2024-01-30T13:34:49;12.10;63.60
17148;DHT22;8689;47.364;8.796;2024-01-30T13:37:17;11.90;65.70
17148;DHT22;8689;47.364;8.796;2024-01-30T13:39:44;11.90;65.60
17148;DHT22;8689;47.364;8.796;2024-01-30T13:42:13;11.80;64.50
17148;DHT22;8689;47.364;8.796;2024-01-30T13:44:42;11.80;65.60
17148;DHT22;8689;47.364;8.796;2024-01-30T13:47:10;11.70;65.50
17148;DHT22;8689;47.364;8.796;2024-01-30T13:49:37;11.60;64.90
17148;DHT22;8689;47.364;8.796;2024-01-30T13:52:05;11.60;66.90
17148;DHT22;8689;47.364;8.796;2024-01-30T13:54:33;11.50;66.50
17148;DHT22;8689;47.364;8.796;2024-01-30T13:57:00;11.40;66.70
17148;DHT22;8689;47.364;8.796;2024-01-30T13:59:28;11.30;66.40
17148;DHT22;8689;47.364;8.796;2024-01-30T14:01:56;11.30;67.00
17148;DHT22;8689;47.364;8.796;2024-01-30T14:04:24;11.30;66.90
17148;DHT22;8689;47.364;8.796;2024-01-30T14:06:58;11.40;69.70
17148;DHT22;8689;47.364;8.796;2024-01-30T14:09:40;11.30;69.10
17148;DHT22;8689;47.364;8.796;2024-01-30T14:12:27;11.20;67.60
17148;DHT22;8689;47.364;8.796;2024-01-30T14:18:23;11.00;68.90
17148;DHT22;8689;47.364;8.796;2024-01-30T14:20:54;10.90;67.80
17148;DHT22;8689;47.364;8.796;2024-01-30T14:23:22;10.90;68.30
17148;DHT22;8689;47.364;8.796;2024-01-30T14:25:50;10.90;68.10
17148;DHT22;8689;47.364;8.796;2024-01-30T14:28:18;10.90;69.40
17148;DHT22;8689;47.364;8.796;2024-01-30T14:30:45;10.90;69.00
17148;DHT22;8689;47.364;8.796;2024-01-30T14:33:13;11.00;67.90
17148;DHT22;8689;47.364;8.796;2024-01-30T14:35:44;11.00;67.80
17148;DHT22;8689;47.364;8.796;2024-01-30T14:38:13;10.90;70.00
17148;DHT22;8689;47.364;8.796;2024-01-30T14:54:16;10.50;74.00
17148;DHT22;8689;47.364;8.796;2024-01-30T14:57:08;10.40;75.40
17148;DHT22;8689;47.364;8.796;2024-01-30T15:10:02;10.10;81.40
17148;DHT22;8689;47.364;8.796;2024-01-30T15:12:30;10.10;83.30
17148;DHT22;8689;47.364;8.796;2024-01-30T15:14:58;10.00;84.40
17148;DHT22;8689;47.364;8.796;2024-01-30T15:17:25;9.90;86.10
17148;DHT22;8689;47.364;8.796;2024-01-30T15:20:15;9.90;86.70
17148;DHT22;8689;47.364;8.796;2024-01-30T15:23:05;9.80;86.40
17148;DHT22;8689;47.364;8.796;2024-01-30T15:41:40;8.70;92.50
17148;DHT22;8689;47.364;8.796;2024-01-30T15:44:09;8.50;93.40
17148;DHT22;8689;47.364;8.796;2024-01-30T15:46:37;8.30;94.20
17148;DHT22;8689;47.364;8.796;2024-01-30T15:49:07;8.10;94.10
17148;DHT22;8689;47.364;8.796;2024-01-30T15:52:01;8.00;94.20
17148;DHT22;8689;47.364;8.796;2024-01-30T15:54:46;7.90;95.70
17148;DHT22;8689;47.364;8.796;2024-01-30T15:57:53;7.70;95.90
17148;DHT22;8689;47.364;8.796;2024-01-30T16:00:50;7.60;97.50
17148;DHT22;8689;47.364;8.796;2024-01-30T16:07:00;7.30;99.90
17148;DHT22;8689;47.364;8.796;2024-01-30T16:10:01;7.10;99.90
17148;DHT22;8689;47.364;8.796;2024-01-30T16:13:07;7.00;99.90
17148;DHT22;8689;47.364;8.796;2024-01-30T16:16:51;6.90;99.90
17148;DHT22;8689;47.364;8.796;2024-01-30T16:23:01;6.50;99.90
17148;DHT22;8689;47.364;8.796;2024-01-30T16:25:29;6.40;99.90
17148;DHT22;8689;47.364;8.796;2024-01-30T16:31:40;6.20;99.90
17148;DHT22;8689;47.364;8.796;2024-01-30T16:37:29;6.10;99.90
17148;DHT22;8689;47.364;8.796;2024-01-30T16:41:44;6.10;99.90
17148;DHT22;8689;47.364;8.796;2024-01-30T16:47:28;6.10;99.90
17148;DHT22;8689;47.364;8.796;2024-01-30T16:49:57;6.10;99.90
17148;DHT22;8689;47.364;8.796;2024-01-30T16:52:32;6.20;99.90
17148;DHT22;8689;47.364;8.796;2024-01-30T16:55:22;6.20;99.90
17148;DHT22;8689;47.364;8.796;2024-01-30T16:57:51;6.20;99.90
17148;DHT22;8689;47.364;8.796;2024-01-30T17:00:21;6.20;99.90
17148;DHT22;8689;47.364;8.796;2024-01-30T17:09:48;5.90;99.90
17148;DHT22;8689;47.364;8.796;2024-01-30T17:12:33;5.80;99.90
17148;DHT22;8689;47.364;8.796;2024-01-30T17:15:14;5.70;99.90
17148;DHT22;8689;47.364;8.796;2024-01-30T17:17:41;5.70;99.90
17148;DHT22;8689;47.364;8.796;2024-01-30T17:20:09;5.60;99.90
17148;DHT22;8689;47.364;8.796;2024-01-30T17:22:37;5.70;99.90
17148;DHT22;8689;47.364;8.796;2024-01-30T17:25:08;5.60;99.90
17148;DHT22;8689;47.364;8.796;2024-01-30T17:27:35;5.50;99.90
17148;DHT22;8689;47.364;8.796;2024-01-30T17:30:03;5.40;99.90
17148;DHT22;8689;47.364;8.796;2024-01-30T17:32:31;5.40;99.90
17148;DHT22;8689;47.364;8.796;2024-01-30T17:35:13;5.30;99.90
17148;DHT22;8689;47.364;8.796;2024-01-30T17:37:40;5.30;99.90
17148;DHT22;8689;47.364;8.796;2024-01-30T17:40:11;5.30;99.90
17148;DHT22;8689;47.364;8.796;2024-01-30T17:42:39;5.30;99.90
17148;DHT22;8689;47.364;8.796;2024-01-30T17:45:12;5.40;99.90
17148;DHT22;8689;47.364;8.796;2024-01-30T17:47:41;5.40;99.90
17148;DHT22;8689;47.364;8.796;2024-01-30T17:50:09;5.40;99.90
17148;DHT22;8689;47.364;8.796;2024-01-30T17:52:36;5.40;99.90
17148;DHT22;8689;47.364;8.796;2024-01-30T17:55:04;5.50;99.90
17148;DHT22;8689;47.364;8.796;2024-01-30T17:57:34;5.40;99.90
17148;DHT22;8689;47.364;8.796;2024-01-30T18:00:03;5.40;99.90
17148;DHT22;8689;47.364;8.796;2024-01-30T18:09:21;5.40;99.90
17148;DHT22;8689;47.364;8.796;2024-01-30T18:11:48;5.40;99.90
17148;DHT22;8689;47.364;8.796;2024-01-30T18:14:18;5.40;99.90
17148;DHT22;8689;47.364;8.796;2024-01-30T18:16:59;5.40;99.90
17148;DHT22;8689;47.364;8.796;2024-01-30T18:19:32;5.30;99.90
17148;DHT22;8689;47.364;8.796;2024-01-30T18:22:48;5.30;99.90
17148;DHT22;8689;47.364;8.796;2024-01-30T18:28:50;5.20;99.90
17148;DHT22;8689;47.364;8.796;2024-01-30T18:31:33;5.10;99.90
17148;DHT22;8689;47.364;8.796;2024-01-30T18:34:23;5.10;99.90
17148;DHT22;8689;47.364;8.796;2024-01-30T18:36:51;5.20;99.90
17148;DHT22;8689;47.364;8.796;2024-01-30T18:39:19;5.20;99.90
17148;DHT22;8689;47.364;8.796;2024-01-30T18:41:46;5.30;99.90
17148;DHT22;8689;47.364;8.796;2024-01-30T18:44:21;5.30;99.90
17148;DHT22;8689;47.364;8.796;2024-01-30T18:46:54;5.20;99.90
17148;DHT22;8689;47.364;8.796;2024-01-30T18:49:29;5.20;99.90
17148;DHT22;8689;47.364;8.796;2024-01-30T18:51:57;5.30;99.90
17148;DHT22;8689;47.364;8.796;2024-01-30T18:54:24;5.40;99.90
17148;DHT22;8689;47.364;8.796;2024-01-30T18:56:51;5.40;99.90
17148;DHT22;8689;47.364;8.796;2024-01-30T18:59:25;5.50;99.90
17148;DHT22;8689;47.364;8.796;2024-01-30T19:01:55;5.40;99.90
17148;DHT22;8689;47.364;8.796;2024-01-30T19:04:22;5.40;99.90
17148;DHT22;8689;47.364;8.796;2024-01-30T19:06:49;5.40;99.90
17148;DHT22;8689;47.364;8.796;2024-01-30T19:09:17;5.40;99.90
17148;DHT22;8689;47.364;8.796;2024-01-30T19:15:09;5.40;99.90
17148;DHT22;8689;47.364;8.796;2024-01-30T19:18:06;5.50;99.90
17148;DHT22;8689;47.364;8.796;2024-01-30T19:20:51;5.50;99.90
17148;DHT22;8689;47.364;8.796;2024-01-30T19:23:19;5.50;99.90
17148;DHT22;8689;47.364;8.796;2024-01-30T19:26:08;5.60;99.90
17148;DHT22;8689;47.364;8.796;2024-01-30T19:28:39;5.70;99.90
17148;DHT22;8689;47.364;8.796;2024-01-30T19:31:07;5.80;99.90
17148;DHT22;8689;47.364;8.796;2024-01-30T19:37:10;5.80;99.90
17148;DHT22;8689;47.364;8.796;2024-01-30T19:39:56;5.80;99.90
17148;DHT22;8689;47.364;8.796;2024-01-30T19:42:36;5.70;99.90
17148;DHT22;8689;47.364;8.796;2024-01-30T19:45:17;5.70;99.90
17148;DHT22;8689;47.364;8.796;2024-01-30T19:47:59;5.70;99.90
17148;DHT22;8689;47.364;8.796;2024-01-30T20:21:53;5.10;99.90
17148;DHT22;8689;47.364;8.796;2024-01-30T20:24:24;4.90;99.90
17148;DHT22;8689;47.364;8.796;2024-01-30T20:27:22;4.70;99.90
17148;DHT22;8689;47.364;8.796;2024-01-30T20:31:23;4.70;99.90
17148;DHT22;8689;47.364;8.796;2024-01-30T20:50:35;4.20;99.90
17148;DHT22;8689;47.364;8.796;2024-01-30T20:53:23;3.90;99.90
17148;DHT22;8689;47.364;8.796;2024-01-30T20:56:16;3.70;99.90
17148;DHT22;8689;47.364;8.796;2024-01-30T20:59:20;3.60;99.90
17148;DHT22;8689;47.364;8.796;2024-01-30T21:02:19;3.50;99.90
17148;DHT22;8689;47.364;8.796;2024-01-30T21:05:02;3.60;99.90
17148;DHT22;8689;47.364;8.796;2024-01-30T21:07:30;3.70;99.90
17148;DHT22;8689;47.364;8.796;2024-01-30T21:10:06;3.70;99.90
17148;DHT22;8689;47.364;8.796;2024-01-30T21:13:15;3.80;99.90
